Time;durP1;ratioP1;P1;durP2;ratioP2;P2;SDS_P1;SDS_P2;PMS_P1;PMS_P2;Temp;Humidity;BMP_temperature;BMP_pressure;BME280_temperature;BME280_humidity;BME280_pressure;Samples;Min_cycle;Max_cycle;Signal;HPM_P1;HPM_P2
2023/12/08 00:00:31;;;;;;;9.20;3.28;;;2.70;99.90;;;;;;4977477;28;20030;-64
2023/12/08 00:02:57;;;;;;;9.38;3.20;;;2.70;99.90;;;;;;4983771;28;20045;-65
2023/12/08 00:05:22;;;;;;;9.23;3.50;;;2.70;99.90;;;;;;4988678;28;20069;-65
2023/12/08 00:07:48;;;;;;;8.20;3.25;;;2.70;99.90;;;;;;4993950;28;20018;-65
2023/12/08 00:10:14;;;;;;;8.73;2.95;;;2.70;99.90;;;;;;4996349;28;20096;-66
2023/12/08 00:12:39;;;;;;;7.35;3.13;;;2.80;99.90;;;;;;4992068;28;20042;-65
2023/12/08 00:15:06;;;;;;;8.55;3.30;;;2.80;99.90;;;;;;4986305;28;20022;-65
2023/12/08 00:17:31;;;;;;;9.02;3.55;;;2.70;99.90;;;;;;4981482;28;20386;-65
2023/12/08 00:19:57;;;;;;;7.97;3.53;;;2.70;99.90;;;;;;4985661;28;20038;-65
2023/12/08 00:22:23;;;;;;;8.35;3.05;;;2.70;99.90;;;;;;4990234;28;20031;-65
2023/12/08 00:24:48;;;;;;;8.50;3.40;;;2.70;99.90;;;;;;4995372;28;20389;-65
2023/12/08 00:27:16;;;;;;;10.10;3.30;;;2.70;99.90;;;;;;4991622;28;20019;-65
2023/12/08 00:29:42;;;;;;;9.52;3.33;;;2.70;99.90;;;;;;4993013;28;20030;-66
2023/12/08 00:32:07;;;;;;;8.50;3.28;;;2.80;99.90;;;;;;4998780;28;20544;-66
2023/12/08 00:34:34;;;;;;;8.27;3.28;;;2.90;99.90;;;;;;4992866;28;20022;-67
2023/12/08 00:37:00;;;;;;;8.55;3.22;;;2.90;99.90;;;;;;4987363;28;20037;-67
2023/12/08 00:39:25;;;;;;;11.48;3.42;;;2.90;99.90;;;;;;4977056;28;20022;-64
2023/12/08 00:41:51;;;;;;;7.70;3.10;;;2.90;99.90;;;;;;4996151;28;20040;-64
2023/12/08 00:44:16;;;;;;;10.15;3.47;;;2.90;99.90;;;;;;4997718;28;20042;-64
2023/12/08 00:46:42;;;;;;;8.75;3.60;;;2.90;99.90;;;;;;4999488;28;20110;-64
2023/12/08 00:49:07;;;;;;;8.57;3.35;;;2.90;99.90;;;;;;5001326;28;20030;-64
2023/12/08 00:51:33;;;;;;;9.32;3.28;;;2.90;99.90;;;;;;5002505;28;20030;-64
2023/12/08 00:53:59;;;;;;;8.20;3.45;;;2.90;99.90;;;;;;5002995;28;20025;-64
2023/12/08 00:56:24;;;;;;;10.80;3.92;;;2.80;99.90;;;;;;5002157;28;20557;-64
2023/12/08 00:58:50;;;;;;;8.57;3.40;;;2.80;99.90;;;;;;5000130;28;20037;-64
2023/12/08 01:01:17;;;;;;;10.40;3.70;;;2.80;99.90;;;;;;4981710;28;20377;-64
2023/12/08 01:03:43;;;;;;;11.40;3.70;;;2.80;99.90;;;;;;5000354;28;20081;-64
2023/12/08 01:06:09;;;;;;;9.85;3.50;;;2.70;99.90;;;;;;5002948;28;20022;-64
2023/12/08 01:08:34;;;;;;;10.52;3.28;;;2.70;99.90;;;;;;5000572;28;20054;-64
2023/12/08 01:11:00;;;;;;;8.43;3.28;;;2.70;99.90;;;;;;5000298;28;20033;-64
2023/12/08 01:13:25;;;;;;;9.32;3.40;;;2.70;99.90;;;;;;5000417;28;20038;-64
2023/12/08 01:15:51;;;;;;;9.65;3.58;;;2.70;99.90;;;;;;5004648;28;20041;-64
2023/12/08 01:18:16;;;;;;;9.52;3.50;;;2.70;99.90;;;;;;5002995;28;20111;-64
2023/12/08 01:20:42;;;;;;;8.77;3.38;;;2.70;99.90;;;;;;4999982;28;20047;-64
2023/12/08 01:23:08;;;;;;;9.45;3.55;;;2.70;99.90;;;;;;5000874;28;20053;-64
2023/12/08 01:25:33;;;;;;;11.38;3.63;;;2.80;99.90;;;;;;4980719;28;20069;-64
2023/12/08 01:27:59;;;;;;;8.40;2.85;;;2.80;99.90;;;;;;5000305;28;20022;-66
2023/12/08 01:30:24;;;;;;;8.20;3.17;;;2.90;99.90;;;;;;4999807;28;20097;-66
2023/12/08 01:32:50;;;;;;;10.80;3.75;;;3.10;99.90;;;;;;4999671;28;20026;-66
2023/12/08 01:35:16;;;;;;;10.05;3.38;;;3.20;99.90;;;;;;5001367;28;20026;-66
2023/12/08 01:37:42;;;;;;;9.32;3.55;;;3.30;99.90;;;;;;4999222;28;20034;-66
2023/12/08 01:40:08;;;;;;;11.48;3.63;;;3.40;99.90;;;;;;5000082;28;20255;-66
2023/12/08 01:42:33;;;;;;;9.90;4.00;;;3.40;99.90;;;;;;4984316;28;20034;-66
2023/12/08 01:44:59;;;;;;;9.23;3.60;;;3.50;99.90;;;;;;4998310;28;20133;-66
2023/12/08 01:47:25;;;;;;;10.32;3.67;;;3.50;99.90;;;;;;5000528;28;20513;-66
2023/12/08 01:49:51;;;;;;;10.88;3.67;;;3.50;99.90;;;;;;4999353;28;20102;-66
2023/12/08 01:52:21;;;;;;;10.95;3.60;;;3.50;99.90;;;;;;5001945;28;20017;-66
2023/12/08 01:54:56;;;;;;;11.85;3.55;;;3.50;99.90;;;;;;4981685;28;20015;-66
2023/12/08 01:57:22;;;;;;;10.50;4.30;;;3.50;99.90;;;;;;4998218;28;20474;-66
2023/12/08 01:59:50;;;;;;;10.25;4.40;;;3.50;99.90;;;;;;4978513;28;20080;-66
2023/12/08 02:02:16;;;;;;;10.00;3.38;;;3.50;99.90;;;;;;4997616;28;20023;-67
2023/12/08 02:04:44;;;;;;;8.30;3.70;;;3.60;99.90;;;;;;4999548;28;20022;-65
2023/12/08 02:07:11;;;;;;;12.18;4.97;;;3.60;99.90;;;;;;5001639;28;20036;-66
2023/12/08 02:09:37;;;;;;;11.20;3.97;;;3.60;99.90;;;;;;4981858;28;20462;-65
2023/12/08 02:12:04;;;;;;;10.00;4.20;;;3.60;99.90;;;;;;4998908;28;20085;-67
2023/12/08 02:14:30;;;;;;;7.28;2.90;;;3.60;99.90;;;;;;4986668;28;20045;-65
2023/12/08 02:17:01;;;;;;;11.13;3.25;;;3.60;99.90;;;;;;5000802;28;20026;-65
2023/12/08 02:19:27;;;;;;;10.13;3.72;;;3.60;99.90;;;;;;4998928;28;20042;-65
2023/12/08 02:21:53;;;;;;;10.15;3.85;;;3.60;99.90;;;;;;4997264;28;20404;-65
2023/12/08 02:24:19;;;;;;;9.43;3.88;;;3.60;99.90;;;;;;4998925;28;20118;-65
2023/12/08 02:26:47;;;;;;;10.57;4.28;;;3.60;99.90;;;;;;5000111;28;20029;-65
2023/12/08 02:29:13;;;;;;;10.52;4.20;;;3.60;99.90;;;;;;5001043;28;20041;-65
2023/12/08 02:31:51;;;;;;;10.95;4.43;;;3.70;99.90;;;;;;4997088;28;20019;-65
2023/12/08 02:34:19;;;;;;;10.90;4.35;;;3.70;99.90;;;;;;4998774;28;20015;-65
2023/12/08 02:36:46;;;;;;;10.02;3.58;;;3.70;99.90;;;;;;4981870;28;20038;-65
2023/12/08 02:39:15;;;;;;;8.52;3.42;;;3.70;99.90;;;;;;5000013;28;20030;-65
2023/12/08 02:41:44;;;;;;;8.70;2.83;;;3.70;99.90;;;;;;4999121;28;20026;-66
2023/12/08 02:44:09;;;;;;;9.45;4.03;;;3.70;99.90;;;;;;4998342;28;20035;-65
2023/12/08 02:46:35;;;;;;;10.98;4.15;;;3.70;99.90;;;;;;5000277;28;20030;-65
2023/12/08 02:49:01;;;;;;;11.10;4.10;;;3.70;99.90;;;;;;5000123;28;20029;-65
2023/12/08 02:51:26;;;;;;;13.07;4.00;;;3.70;99.90;;;;;;4998190;28;20433;-65
2023/12/08 02:53:52;;;;;;;11.45;4.88;;;3.70;99.90;;;;;;4999507;28;20027;-65
2023/12/08 02:56:20;;;;;;;11.13;4.55;;;3.70;99.90;;;;;;5001186;28;20041;-65
2023/12/08 02:58:46;;;;;;;12.48;4.78;;;3.60;99.90;;;;;;4998031;28;20611;-64
2023/12/08 03:01:12;;;;;;;10.80;3.95;;;3.60;99.90;;;;;;4996950;28;20058;-62
2023/12/08 03:03:37;;;;;;;10.73;4.57;;;3.50;99.90;;;;;;4983087;28;20381;-62
2023/12/08 03:06:03;;;;;;;11.23;4.43;;;3.50;99.90;;;;;;4996872;28;20041;-62
2023/12/08 03:08:28;;;;;;;12.88;4.68;;;3.50;99.90;;;;;;4999019;28;20616;-64
2023/12/08 03:10:54;;;;;;;14.57;5.20;;;3.50;99.90;;;;;;4995007;28;20547;-63
2023/12/08 03:13:20;;;;;;;11.25;4.88;;;3.50;99.90;;;;;;4998875;28;20128;-63
2023/12/08 03:15:46;;;;;;;11.38;4.88;;;3.50;99.90;;;;;;4998928;28;20026;-63
2023/12/08 03:18:11;;;;;;;11.43;4.63;;;3.40;99.90;;;;;;4999986;28;20308;-63
2023/12/08 03:20:37;;;;;;;12.52;4.53;;;3.40;99.90;;;;;;4980956;28;20169;-63
2023/12/08 03:23:02;;;;;;;12.65;5.07;;;3.30;99.90;;;;;;4999578;28;20389;-63
2023/12/08 03:25:28;;;;;;;10.30;4.38;;;3.30;99.90;;;;;;4998137;28;20092;-63
2023/12/08 03:27:54;;;;;;;12.43;4.65;;;3.30;99.90;;;;;;4997954;28;20022;-63
2023/12/08 03:30:19;;;;;;;11.60;4.40;;;3.30;99.90;;;;;;4999947;28;20424;-62
2023/12/08 03:32:45;;;;;;;12.07;4.82;;;3.20;99.90;;;;;;4995744;28;20033;-62
2023/12/08 03:35:10;;;;;;;12.88;4.85;;;3.20;99.90;;;;;;4997354;28;20587;-64
2023/12/08 03:37:36;;;;;;;11.88;4.80;;;3.20;99.90;;;;;;4999497;28;20167;-62
2023/12/08 03:40:02;;;;;;;13.52;5.72;;;3.20;99.90;;;;;;4997349;28;20030;-64
2023/12/08 03:42:27;;;;;;;13.45;5.60;;;3.20;99.90;;;;;;4997144;28;20494;-64
2023/12/08 03:44:53;;;;;;;18.70;5.85;;;3.20;99.90;;;;;;4998999;28;20723;-64
2023/12/08 03:47:18;;;;;;;12.52;5.25;;;3.20;99.90;;;;;;4981288;28;20084;-64
2023/12/08 03:49:47;;;;;;;13.25;6.00;;;3.20;99.90;;;;;;4995860;28;20074;-64
2023/12/08 03:52:12;;;;;;;14.07;5.55;;;3.20;99.90;;;;;;4998979;28;20030;-64
2023/12/08 03:54:38;;;;;;;13.90;5.68;;;3.10;99.90;;;;;;4999611;28;20484;-64
2023/12/08 03:57:04;;;;;;;14.65;6.07;;;3.10;99.90;;;;;;4998627;28;20395;-64
2023/12/08 03:59:29;;;;;;;15.23;5.75;;;3.10;99.90;;;;;;4998322;28;20022;-64
2023/12/08 04:01:55;;;;;;;14.48;6.75;;;3.10;99.90;;;;;;4997628;28;20133;-66
2023/12/08 04:04:21;;;;;;;15.45;5.97;;;3.00;99.90;;;;;;4997888;28;20022;-66
2023/12/08 04:06:46;;;;;;;14.23;5.68;;;3.00;99.90;;;;;;4995286;28;20038;-65
2023/12/08 04:09:12;;;;;;;14.15;6.00;;;2.90;99.90;;;;;;4998160;28;20389;-65
2023/12/08 04:11:37;;;;;;;15.10;6.30;;;2.90;99.90;;;;;;4996686;28;20022;-65
2023/12/08 04:14:03;;;;;;;16.17;6.40;;;2.80;99.90;;;;;;4998038;28;20441;-65
2023/12/08 04:16:28;;;;;;;16.85;7.20;;;2.80;99.90;;;;;;4995342;28;20026;-65
2023/12/08 04:18:54;;;;;;;16.13;6.60;;;2.70;99.90;;;;;;4978177;28;20110;-66
2023/12/08 04:21:22;;;;;;;16.38;6.60;;;2.60;99.90;;;;;;4998322;28;20524;-65
2023/12/08 04:23:48;;;;;;;16.63;7.10;;;2.50;99.90;;;;;;4999871;28;20037;-65
2023/12/08 04:26:13;;;;;;;15.98;6.65;;;2.40;99.90;;;;;;5000277;28;20394;-66
2023/12/08 04:28:39;;;;;;;19.05;6.93;;;2.30;99.90;;;;;;5002915;28;20018;-65
2023/12/08 04:31:05;;;;;;;16.77;7.50;;;2.30;99.90;;;;;;4999057;28;20023;-65
2023/12/08 04:33:31;;;;;;;16.38;6.63;;;2.30;99.90;;;;;;5000968;28;20105;-66
2023/12/08 04:35:56;;;;;;;16.10;6.50;;;2.20;99.90;;;;;;5002387;28;20057;-66
2023/12/08 04:38:22;;;;;;;18.27;7.55;;;2.20;99.90;;;;;;5002205;28;20145;-66
2023/12/08 04:40:47;;;;;;;15.70;6.75;;;2.20;99.90;;;;;;4999865;28;20038;-66
2023/12/08 04:43:16;;;;;;;16.15;6.72;;;2.20;99.90;;;;;;5000970;28;20485;-66
2023/12/08 04:45:41;;;;;;;17.30;7.22;;;2.30;99.90;;;;;;4999566;28;20054;-66
2023/12/08 04:48:07;;;;;;;18.42;6.45;;;2.20;99.90;;;;;;4984472;28;20507;-66
2023/12/08 04:50:33;;;;;;;17.35;7.30;;;2.20;99.90;;;;;;4983958;28;20018;-66
2023/12/08 04:52:58;;;;;;;17.63;7.22;;;2.20;99.90;;;;;;5002230;28;20030;-66
2023/12/08 04:55:24;;;;;;;15.05;6.68;;;2.20;99.90;;;;;;5002991;28;20099;-67
2023/12/08 04:57:49;;;;;;;20.25;7.95;;;2.20;99.90;;;;;;5002193;28;20037;-67
2023/12/08 05:00:16;;;;;;;17.63;7.35;;;2.20;99.90;;;;;;4984984;28;20026;-65
2023/12/08 05:02:42;;;;;;;19.08;8.10;;;2.20;99.90;;;;;;4983353;28;20022;-67
2023/12/08 05:05:07;;;;;;;22.73;8.90;;;2.20;99.90;;;;;;5001489;28;20026;-67
2023/12/08 05:07:33;;;;;;;19.30;8.60;;;2.20;99.90;;;;;;5000091;28;20113;-67
2023/12/08 05:10:00;;;;;;;17.55;7.03;;;2.20;99.90;;;;;;4999607;28;20374;-67
2023/12/08 05:12:25;;;;;;;22.40;8.88;;;2.10;99.90;;;;;;5000315;28;20030;-67
2023/12/08 05:14:51;;;;;;;19.15;8.23;;;2.10;99.90;;;;;;4985436;28;20027;-67
2023/12/08 05:17:17;;;;;;;22.15;9.45;;;2.20;99.90;;;;;;5003353;28;20030;-67
2023/12/08 05:19:42;;;;;;;21.10;8.93;;;2.10;99.90;;;;;;4999721;28;20042;-67
2023/12/08 05:22:08;;;;;;;21.55;9.57;;;2.10;99.90;;;;;;4999206;28;20026;-67
2023/12/08 05:24:33;;;;;;;20.83;8.35;;;2.10;99.90;;;;;;5000316;28;20034;-67
2023/12/08 05:26:59;;;;;;;21.38;8.73;;;2.10;99.90;;;;;;4983820;28;20032;-67
2023/12/08 05:29:25;;;;;;;22.10;7.80;;;2.10;99.90;;;;;;4999743;28;20030;-66
2023/12/08 05:31:50;;;;;;;17.33;7.53;;;2.10;99.90;;;;;;4993772;28;20035;-67
2023/12/08 05:34:16;;;;;;;26.20;10.35;;;2.10;99.90;;;;;;5002497;28;20030;-68
2023/12/08 05:36:41;;;;;;;21.95;9.52;;;2.00;99.90;;;;;;5001060;28;20347;-68
2023/12/08 05:39:07;;;;;;;26.70;10.27;;;2.10;99.90;;;;;;4984785;28;20371;-68
2023/12/08 05:41:32;;;;;;;26.60;10.73;;;2.10;99.90;;;;;;5000098;28;20034;-68
2023/12/08 05:43:58;;;;;;;26.85;11.30;;;2.10;99.90;;;;;;4982255;28;20038;-68
2023/12/08 05:46:24;;;;;;;24.17;10.77;;;2.10;99.90;;;;;;5001529;28;20077;-68
2023/12/08 05:48:49;;;;;;;26.80;11.13;;;2.10;99.90;;;;;;4999429;28;20053;-68
2023/12/08 05:51:15;;;;;;;26.80;10.68;;;2.10;99.90;;;;;;4999696;28;20102;-68
2023/12/08 05:53:40;;;;;;;27.48;11.32;;;2.10;99.90;;;;;;4983903;28;20425;-64
2023/12/08 05:56:09;;;;;;;24.45;10.82;;;2.10;99.90;;;;;;5000423;28;20033;-68
2023/12/08 05:58:34;;;;;;;23.00;9.18;;;2.10;99.90;;;;;;5002005;28;20030;-68
2023/12/08 06:01:00;;;;;;;23.45;10.38;;;2.10;99.90;;;;;;4998662;28;20072;-68
2023/12/08 06:03:25;;;;;;;21.63;9.68;;;2.20;99.90;;;;;;5001790;28;20034;-65
2023/12/08 06:05:53;;;;;;;25.65;10.93;;;2.20;99.90;;;;;;5001555;28;20401;-65
2023/12/08 06:08:19;;;;;;;24.63;9.95;;;2.20;99.90;;;;;;4980151;28;20478;-65
2023/12/08 06:10:46;;;;;;;26.73;9.93;;;2.20;99.90;;;;;;4994353;28;20026;-65
2023/12/08 06:13:13;;;;;;;25.35;10.40;;;2.20;99.90;;;;;;4996894;28;20026;-65
2023/12/08 06:15:39;;;;;;;23.60;10.32;;;2.20;99.90;;;;;;4982602;28;20486;-65
2023/12/08 06:18:05;;;;;;;25.52;10.38;;;2.20;99.90;;;;;;5000594;28;20022;-67
2023/12/08 06:20:30;;;;;;;24.75;10.20;;;2.30;99.90;;;;;;4996224;28;20060;-67
2023/12/08 06:22:56;;;;;;;22.40;9.00;;;2.30;99.90;;;;;;4997617;28;20026;-66
2023/12/08 06:25:21;;;;;;;26.17;10.60;;;2.40;99.90;;;;;;4995614;28;20041;-67
2023/12/08 06:27:47;;;;;;;25.60;10.18;;;2.40;99.90;;;;;;4998692;28;20117;-67
2023/12/08 06:30:13;;;;;;;22.77;9.13;;;2.40;99.90;;;;;;5000094;28;20025;-67
2023/12/08 06:32:38;;;;;;;25.02;10.77;;;2.40;99.90;;;;;;4977484;28;20421;-67
2023/12/08 06:35:04;;;;;;;22.52;9.55;;;2.40;99.90;;;;;;4996292;28;20021;-67
2023/12/08 06:37:30;;;;;;;26.27;9.52;;;2.40;99.90;;;;;;4994897;28;20026;-66
2023/12/08 06:39:55;;;;;;;26.35;10.73;;;2.40;99.90;;;;;;4993909;28;20022;-67
2023/12/08 06:42:21;;;;;;;22.08;8.65;;;2.50;99.90;;;;;;4988476;28;20034;-66
2023/12/08 06:44:47;;;;;;;27.20;10.85;;;2.50;99.90;;;;;;4996156;28;20021;-67
2023/12/08 06:47:13;;;;;;;22.33;8.68;;;2.50;99.90;;;;;;4978508;28;20508;-67
2023/12/08 06:49:38;;;;;;;27.38;11.38;;;2.50;99.90;;;;;;4988280;28;20041;-67
2023/12/08 06:52:07;;;;;;;16.38;6.97;;;2.50;99.90;;;;;;4990136;28;21418;-67
2023/12/08 06:54:32;;;;;;;25.13;10.60;;;2.50;99.90;;;;;;4992410;28;20084;-67
2023/12/08 06:56:58;;;;;;;16.63;7.25;;;2.60;99.90;;;;;;4988632;28;20022;-66
2023/12/08 06:59:23;;;;;;;22.13;9.63;;;2.60;99.90;;;;;;4996277;28;20022;-66
2023/12/08 07:01:49;;;;;;;23.23;8.88;;;2.60;99.90;;;;;;4997048;28;20084;-67
2023/12/08 07:04:15;;;;;;;21.05;9.35;;;2.60;99.90;;;;;;4996930;28;20038;-67
2023/12/08 07:06:40;;;;;;;22.67;9.70;;;2.60;99.90;;;;;;4985001;28;20033;-67
2023/12/08 07:09:06;;;;;;;17.80;7.78;;;2.60;99.90;;;;;;4990403;28;20060;-67
2023/12/08 07:11:33;;;;;;;22.70;9.68;;;2.60;99.90;;;;;;4991837;28;20029;-66
2023/12/08 07:13:58;;;;;;;23.17;9.63;;;2.70;99.90;;;;;;4990301;28;20022;-67
2023/12/08 07:16:24;;;;;;;19.60;8.88;;;2.60;99.90;;;;;;4994536;28;20527;-67
2023/12/08 07:18:50;;;;;;;21.48;9.43;;;2.60;99.90;;;;;;5002152;28;20034;-66
2023/12/08 07:21:18;;;;;;;21.65;10.07;;;2.60;99.90;;;;;;4991888;28;20500;-66
2023/12/08 07:23:43;;;;;;;18.67;8.90;;;2.70;99.90;;;;;;4995019;28;20121;-67
2023/12/08 07:26:10;;;;;;;19.58;8.98;;;2.70;99.90;;;;;;4999031;28;20501;-66
2023/12/08 07:28:38;;;;;;;21.85;8.63;;;2.80;99.90;;;;;;4999339;28;20041;-66
2023/12/08 07:31:03;;;;;;;25.45;10.43;;;2.80;99.90;;;;;;4993230;28;20022;-66
2023/12/08 07:33:29;;;;;;;24.67;10.57;;;2.70;99.90;;;;;;4989801;28;20134;-65
2023/12/08 07:35:55;;;;;;;22.75;8.35;;;2.70;99.90;;;;;;4983999;28;20100;-66
2023/12/08 07:38:20;;;;;;;24.45;10.32;;;2.70;99.90;;;;;;4994053;28;20060;-65
2023/12/08 07:40:46;;;;;;;27.65;12.00;;;2.70;99.90;;;;;;4995358;28;20508;-66
2023/12/08 07:43:12;;;;;;;27.00;11.45;;;2.80;99.90;;;;;;4979619;28;20018;-66
2023/12/08 07:45:40;;;;;;;23.33;10.93;;;2.70;99.90;;;;;;4995226;28;20446;-68
2023/12/08 07:48:05;;;;;;;23.30;9.98;;;2.70;99.90;;;;;;4995730;28;20031;-67
2023/12/08 07:50:31;;;;;;;25.00;10.90;;;2.80;99.90;;;;;;4997226;28;20034;-67
2023/12/08 07:52:56;;;;;;;27.77;12.80;;;2.70;99.90;;;;;;5000453;28;20353;-67
2023/12/08 07:55:22;;;;;;;27.17;12.35;;;2.70;99.90;;;;;;4985475;28;20315;-67
2023/12/08 07:57:48;;;;;;;29.63;12.88;;;2.70;99.90;;;;;;5003133;28;20139;-66
2023/12/08 08:00:13;;;;;;;27.02;12.27;;;2.70;99.90;;;;;;5002391;28;20040;-67
2023/12/08 08:02:43;;;;;;;26.58;12.50;;;2.70;99.90;;;;;;4999799;28;20034;-67
2023/12/08 08:05:08;;;;;;;29.40;12.68;;;2.70;99.90;;;;;;4999767;28;20027;-66
2023/12/08 08:07:34;;;;;;;32.00;13.52;;;2.70;99.90;;;;;;5002768;28;20041;-67
2023/12/08 08:10:00;;;;;;;23.85;11.88;;;2.70;99.90;;;;;;4982323;28;20031;-67
2023/12/08 08:12:25;;;;;;;27.30;11.18;;;2.60;99.90;;;;;;4999071;28;20535;-66
2023/12/08 08:14:51;;;;;;;31.20;13.02;;;2.70;99.90;;;;;;5002402;28;20033;-66
2023/12/08 08:17:17;;;;;;;29.10;12.18;;;2.70;99.90;;;;;;4981887;28;20049;-67
2023/12/08 08:19:43;;;;;;;24.45;9.13;;;2.80;99.90;;;;;;4998494;28;20056;-67
2023/12/08 08:22:09;;;;;;;23.70;10.30;;;2.70;99.90;;;;;;4997721;28;20031;-67
2023/12/08 08:24:34;;;;;;;29.67;13.00;;;2.80;99.90;;;;;;5001164;28;20716;-66
2023/12/08 08:27:01;;;;;;;25.45;13.30;;;2.80;99.90;;;;;;4988133;28;20045;-67
2023/12/08 08:29:26;;;;;;;30.20;12.68;;;2.80;99.90;;;;;;5000825;28;20158;-67
2023/12/08 08:31:52;;;;;;;26.05;12.35;;;2.90;99.90;;;;;;5000529;28;20495;-67
2023/12/08 08:34:18;;;;;;;27.40;11.77;;;2.90;99.90;;;;;;4971553;28;20035;-66
2023/12/08 08:36:44;;;;;;;23.33;9.75;;;2.90;99.90;;;;;;4997644;28;20029;-67
2023/12/08 08:39:10;;;;;;;19.45;8.88;;;3.00;99.90;;;;;;4999049;28;20062;-67
2023/12/08 08:41:35;;;;;;;26.48;11.73;;;3.00;99.90;;;;;;5002154;28;20053;-67
2023/12/08 08:44:01;;;;;;;25.15;12.30;;;3.00;99.90;;;;;;4981910;28;20084;-66
2023/12/08 08:46:27;;;;;;;26.77;12.63;;;3.10;99.90;;;;;;5001479;28;20026;-67
2023/12/08 08:48:54;;;;;;;24.05;9.60;;;3.10;99.90;;;;;;5001428;28;20022;-67
2023/12/08 08:51:21;;;;;;;22.42;10.65;;;3.10;99.90;;;;;;4999737;28;20470;-67
2023/12/08 08:53:49;;;;;;;23.55;9.90;;;3.10;99.90;;;;;;4983196;28;20022;-67
2023/12/08 08:56:15;;;;;;;22.77;9.55;;;3.10;99.90;;;;;;5001833;28;20101;-67
2023/12/08 08:58:40;;;;;;;28.50;12.18;;;3.10;99.90;;;;;;5002812;28;20116;-66
2023/12/08 09:01:06;;;;;;;22.20;10.48;;;3.10;99.90;;;;;;4998924;28;20034;-67
2023/12/08 09:03:31;;;;;;;23.08;9.98;;;3.20;99.90;;;;;;4999685;28;20383;-66
2023/12/08 09:05:57;;;;;;;25.75;11.38;;;3.20;99.90;;;;;;4982837;28;20367;-66
2023/12/08 09:08:23;;;;;;;27.95;12.35;;;3.20;99.90;;;;;;5001503;28;20025;-66
2023/12/08 09:10:50;;;;;;;26.00;9.70;;;3.20;99.90;;;;;;5003137;28;20027;-65
2023/12/08 09:13:15;;;;;;;27.30;10.18;;;3.20;99.90;;;;;;4998354;28;20026;-66
2023/12/08 09:15:43;;;;;;;25.85;10.77;;;3.20;99.90;;;;;;5002342;28;20462;-66
2023/12/08 09:18:09;;;;;;;26.25;10.65;;;3.30;99.90;;;;;;5002317;28;20179;-66
2023/12/08 09:20:36;;;;;;;28.48;10.88;;;3.30;99.90;;;;;;4999103;28;20445;-66
2023/12/08 09:23:02;;;;;;;26.10;10.75;;;3.30;99.90;;;;;;4987391;28;20100;-67
2023/12/08 09:25:28;;;;;;;31.55;12.98;;;3.30;99.90;;;;;;5000225;28;20040;-67
2023/12/08 09:27:53;;;;;;;28.52;12.15;;;3.40;99.90;;;;;;4999181;28;20416;-66
2023/12/08 09:30:19;;;;;;;28.17;12.13;;;3.30;99.90;;;;;;5000831;28;20386;-66
2023/12/08 09:32:45;;;;;;;23.35;11.52;;;3.40;99.90;;;;;;4981791;28;20691;-67
2023/12/08 09:35:12;;;;;;;27.80;12.02;;;3.40;99.90;;;;;;4980910;28;20023;-67
2023/12/08 09:37:38;;;;;;;27.52;11.52;;;3.40;99.90;;;;;;4982253;28;20030;-64
2023/12/08 09:40:08;;;;;;;27.98;12.52;;;3.40;99.90;;;;;;5002933;28;20034;-66
2023/12/08 09:42:58;;;;;;;30.13;11.90;;;3.40;99.90;;;;;;4999752;28;20042;-66
2023/12/08 09:45:24;;;;;;;28.23;11.10;;;3.50;99.90;;;;;;5000577;28;20088;-66
2023/12/08 09:47:56;;;;;;;33.67;13.38;;;3.50;99.90;;;;;;4998450;28;20031;-66
2023/12/08 09:50:23;;;;;;;26.02;12.02;;;3.50;99.90;;;;;;4999266;28;20053;-66
2023/12/08 09:52:48;;;;;;;32.20;13.82;;;3.50;99.90;;;;;;4983207;28;20425;-67
2023/12/08 09:55:15;;;;;;;23.60;10.13;;;3.50;99.90;;;;;;4998658;28;20033;-67
2023/12/08 09:57:46;;;;;;;29.65;10.88;;;3.50;99.90;;;;;;4981351;28;20033;-67
2023/12/08 10:00:13;;;;;;;31.55;12.75;;;3.60;99.90;;;;;;4982021;28;20672;-68
2023/12/08 10:02:40;;;;;;;29.02;13.27;;;3.60;99.90;;;;;;4999017;28;20359;-68
2023/12/08 10:05:12;;;;;;;28.30;12.40;;;3.60;99.90;;;;;;4997997;28;20014;-68
2023/12/08 10:07:43;;;;;;;27.35;12.68;;;3.60;99.90;;;;;;4998206;28;20026;-68
2023/12/08 10:10:09;;;;;;;;;;;3.60;99.90;;;;;;5000464;28;20022;-68
2023/12/08 10:12:36;;;;;;;23.25;8.65;;;3.60;99.90;;;;;;5000711;28;19956;-68
2023/12/08 10:15:01;;;;;;;29.05;11.93;;;3.70;99.90;;;;;;4998749;28;20030;-68
2023/12/08 10:17:27;;;;;;;30.42;12.82;;;3.70;99.90;;;;;;5001926;28;20037;-66
2023/12/08 10:20:10;;;;;;;29.23;13.02;;;3.70;99.90;;;;;;4997810;28;20378;-65
2023/12/08 10:22:49;;;;;;;31.08;14.10;;;3.70;99.90;;;;;;4980441;28;20085;-65
2023/12/08 10:25:18;;;;;;;30.45;12.93;;;3.80;99.90;;;;;;4997318;28;20080;-65
2023/12/08 10:27:50;;;;;;;30.13;12.40;;;3.80;99.90;;;;;;4998713;28;20026;-68
2023/12/08 10:30:18;;;;;;;25.77;11.68;;;3.80;99.90;;;;;;4997397;28;20057;-66
2023/12/08 10:32:44;;;;;;;31.13;13.20;;;3.80;99.90;;;;;;4997812;28;20041;-65
2023/12/08 10:35:12;;;;;;;29.83;12.38;;;3.80;99.90;;;;;;4999346;28;20025;-68
2023/12/08 10:37:42;;;;;;;29.42;12.77;;;3.80;99.90;;;;;;4980559;28;20034;-66
2023/12/08 10:40:12;;;;;;;28.08;12.50;;;3.90;99.90;;;;;;5000565;28;20021;-66
2023/12/08 10:42:38;;;;;;;27.38;11.38;;;3.90;99.90;;;;;;4982469;28;20449;-66
2023/12/08 10:45:10;;;;;;;26.58;11.55;;;3.90;99.90;;;;;;4981065;28;20034;-66
2023/12/08 10:47:40;;;;;;;29.85;11.70;;;4.00;99.90;;;;;;4997854;28;20457;-66
2023/12/08 10:50:09;;;;;;;26.88;11.80;;;4.00;99.90;;;;;;4995943;28;20033;-66
2023/12/08 10:52:37;;;;;;;24.67;10.10;;;4.10;99.90;;;;;;4998218;28;20038;-66
2023/12/08 10:55:04;;;;;;;23.52;9.77;;;4.10;99.90;;;;;;4996380;28;20022;-65
2023/12/08 10:57:30;;;;;;;26.52;11.10;;;4.10;99.90;;;;;;5001550;28;20041;-68
2023/12/08 10:59:59;;;;;;;24.50;10.20;;;4.20;99.90;;;;;;4981092;28;20034;-66
2023/12/08 11:02:30;;;;;;;23.55;9.75;;;4.20;99.90;;;;;;4977486;28;20030;-66
2023/12/08 11:05:03;;;;;;;23.70;9.18;;;4.30;99.90;;;;;;4981087;28;20033;-66
2023/12/08 11:07:32;;;;;;;18.33;9.10;;;4.30;99.90;;;;;;4982561;28;20049;-65
2023/12/08 11:10:07;;;;;;;23.45;9.90;;;4.40;99.90;;;;;;5000675;28;20070;-65
2023/12/08 11:12:39;;;;;;;22.13;9.77;;;4.40;99.90;;;;;;4998023;28;20026;-64
2023/12/08 11:15:15;;;;;;;22.48;9.52;;;4.40;99.90;;;;;;5000541;28;20030;-64
2023/12/08 11:18:02;;;;;;;21.90;9.32;;;4.50;99.90;;;;;;5002031;28;20033;-65
2023/12/08 11:20:28;;;;;;;20.17;8.70;;;4.50;99.90;;;;;;5000184;28;20489;-65
2023/12/08 11:22:55;;;;;;;21.27;8.85;;;4.50;99.90;;;;;;4999062;28;20045;-64
2023/12/08 11:25:27;;;;;;;20.90;8.98;;;4.50;99.90;;;;;;4979722;28;20034;-64
2023/12/08 11:28:03;;;;;;;20.73;9.23;;;4.50;99.90;;;;;;4998313;28;20030;-64
2023/12/08 11:31:08;;;;;;;23.48;8.20;;;4.50;99.90;;;;;;4998097;28;20018;-64
2023/12/08 11:33:48;;;;;;;20.48;9.07;;;4.60;99.90;;;;;;4940534;29;20024;-64
2023/12/08 11:36:18;;;;;;;21.33;9.25;;;4.50;99.90;;;;;;4993369;28;20141;-64
2023/12/08 11:38:43;;;;;;;20.35;9.57;;;4.60;99.90;;;;;;4994837;28;20379;-64
2023/12/08 11:41:16;;;;;;;21.65;8.70;;;4.60;99.90;;;;;;4993989;28;20118;-64
2023/12/08 11:43:43;;;;;;;20.23;8.52;;;4.60;99.90;;;;;;4993226;28;20494;-64
2023/12/08 11:46:09;;;;;;;22.17;8.95;;;;;;;;;;4999308;28;20022;-64
2023/12/08 11:48:36;;;;;;;20.02;8.82;;;4.70;99.90;;;;;;4993580;28;20061;-64
2023/12/08 11:51:04;;;;;;;19.77;9.20;;;4.60;99.90;;;;;;5001205;28;20018;-64
2023/12/08 11:53:46;;;;;;;21.38;9.50;;;4.70;99.90;;;;;;4997617;28;20145;-64
2023/12/08 11:56:42;;;;;;;18.48;8.15;;;4.70;99.90;;;;;;5001704;28;20037;-64
2023/12/08 11:59:19;;;;;;;18.05;8.38;;;4.70;99.90;;;;;;4977409;28;20126;-64
2023/12/08 12:01:47;;;;;;;19.52;9.02;;;4.80;99.90;;;;;;4992295;28;20034;-64
2023/12/08 12:04:13;;;;;;;18.30;8.60;;;4.90;99.90;;;;;;4999081;28;20485;-65
2023/12/08 12:06:42;;;;;;;21.75;9.05;;;4.90;99.90;;;;;;4999167;28;20066;-65
2023/12/08 12:09:08;;;;;;;23.45;8.88;;;4.90;99.90;;;;;;5000604;28;20041;-64
2023/12/08 12:11:39;;;;;;;17.77;7.75;;;4.90;99.90;;;;;;4979787;28;20076;-64
2023/12/08 12:14:07;;;;;;;18.70;8.15;;;4.90;99.90;;;;;;4998631;28;20205;-65
2023/12/08 12:16:33;;;;;;;19.70;7.97;;;4.90;99.90;;;;;;4980927;28;20299;-64
2023/12/08 12:18:59;;;;;;;21.23;9.20;;;4.90;99.90;;;;;;5002228;28;20041;-65
2023/12/08 12:21:25;;;;;;;20.55;9.57;;;4.90;99.90;;;;;;4984911;28;20123;-65
2023/12/08 12:23:50;;;;;;;25.05;9.48;;;4.90;99.90;;;;;;4985199;28;20088;-66
2023/12/08 12:26:20;;;;;;;24.48;9.35;;;4.90;99.90;;;;;;4982565;28;20034;-66
2023/12/08 12:28:46;;;;;;;22.38;9.68;;;4.90;99.90;;;;;;4996123;28;20528;-66
2023/12/08 12:31:14;;;;;;;19.63;8.80;;;5.00;99.90;;;;;;5001378;28;20033;-66
2023/12/08 12:33:42;;;;;;;19.38;9.48;;;5.00;99.90;;;;;;4996233;28;20108;-66
2023/12/08 12:36:08;;;;;;;22.55;9.90;;;5.10;99.90;;;;;;4982119;28;20068;-66
2023/12/08 12:38:33;;;;;;;19.90;8.90;;;5.10;99.90;;;;;;5003832;28;20068;-66
2023/12/08 12:41:21;;;;;;;21.42;9.70;;;5.10;99.90;;;;;;5004988;28;20097;-66
2023/12/08 12:43:49;;;;;;;24.17;8.55;;;5.20;99.90;;;;;;4986977;28;20092;-66